createdAt,value
2023-01-25T00:00:56.317Z,85.93
2023-01-25T00:03:23.654Z,85.63
2023-01-25T00:05:59.432Z,84.36
2023-01-25T00:08:26.761Z,83.65
2023-01-25T00:10:54.047Z,84.50
2023-01-25T00:13:21.450Z,83.99
2023-01-25T00:15:48.715Z,83.39
2023-01-25T00:18:19.547Z,84.63
2023-01-25T00:20:48.912Z,85.24
2023-01-25T00:23:18.671Z,85.16
2023-01-25T00:25:46.042Z,85.19
2023-01-25T00:28:13.277Z,84.05
2023-01-25T00:30:43.623Z,83.66
2023-01-25T00:33:19.728Z,84.75
2023-01-25T00:35:49.638Z,85.30
2023-01-25T00:38:31.190Z,85.62
2023-01-25T00:41:00.045Z,85.56
2023-01-25T00:43:29.583Z,85.05
2023-01-25T00:46:03.545Z,84.45
2023-01-25T00:48:31.020Z,83.81
2023-01-25T00:51:02.315Z,83.62
2023-01-25T00:53:32.899Z,83.99
2023-01-25T00:56:00.366Z,84.42
2023-01-25T00:58:28.320Z,84.57
2023-01-25T01:00:56.612Z,84.79
2023-01-25T01:03:24.933Z,85.50
2023-01-25T01:06:12.780Z,84.75
2023-01-25T01:08:41.476Z,83.65
2023-01-25T01:11:11.960Z,84.09
2023-01-25T01:13:40.275Z,84.51
2023-01-25T01:16:11.504Z,80.02
2023-01-25T01:18:45.346Z,80.98
2023-01-25T01:21:13.800Z,80.27
2023-01-25T01:23:41.571Z,80.83
2023-01-25T01:26:13.122Z,81.65
2023-01-25T01:28:41.010Z,81.71
2023-01-25T01:31:15.768Z,82.60
2023-01-25T01:33:52.259Z,83.63
2023-01-25T01:36:22.657Z,83.62
2023-01-25T01:38:52.185Z,83.23
2023-01-25T01:41:20.143Z,83.85
2023-01-25T01:43:47.895Z,85.12
2023-01-25T01:46:22.938Z,85.42
2023-01-25T01:49:02.417Z,84.34
2023-01-25T01:51:51.146Z,83.84
2023-01-25T01:54:34.080Z,84.11
2023-01-25T01:57:09.270Z,84.22
2023-01-25T02:00:00.469Z,85.20
2023-01-25T02:02:28.225Z,85.66
2023-01-25T02:05:01.839Z,85.01
2023-01-25T02:07:40.034Z,84.11
2023-01-25T02:10:11.936Z,83.84
2023-01-25T02:12:41.821Z,84.08
2023-01-25T02:15:10.441Z,84.85
2023-01-25T02:17:40.304Z,84.58
2023-01-25T02:20:43.408Z,83.87
2023-01-25T02:23:32.834Z,85.03
2023-01-25T02:26:03.775Z,84.77
2023-01-25T02:28:53.240Z,84.30
2023-01-25T02:31:23.968Z,83.81
2023-01-25T02:33:51.460Z,84.51
2023-01-25T02:36:25.180Z,86.33
2023-01-25T02:38:55.974Z,85.98
2023-01-25T02:41:33.472Z,85.22
2023-01-25T02:44:07.313Z,84.64
2023-01-25T02:46:37.143Z,84.92
2023-01-25T02:49:08.949Z,84.91
2023-01-25T02:51:41.468Z,85.31
2023-01-25T02:54:11.065Z,85.34
2023-01-25T02:56:41.102Z,84.00
2023-01-25T02:59:10.657Z,83.95
2023-01-25T03:01:41.238Z,83.20
2023-01-25T03:04:09.318Z,83.58
2023-01-25T03:06:39.286Z,83.80
2023-01-25T03:09:09.097Z,84.40
2023-01-25T03:11:38.822Z,84.73
2023-01-25T03:14:06.211Z,82.59
2023-01-25T03:16:34.950Z,83.07
2023-01-25T03:19:04.690Z,83.17
2023-01-25T03:21:32.215Z,82.98
2023-01-25T03:24:02.238Z,82.60
2023-01-25T03:26:58.192Z,82.24
2023-01-25T03:29:41.829Z,82.60
2023-01-25T03:32:14.667Z,82.15
2023-01-25T03:34:42.125Z,81.59
2023-01-25T03:37:10.158Z,81.67
2023-01-25T03:39:39.546Z,80.97
2023-01-25T03:42:15.928Z,81.01
2023-01-25T03:44:43.776Z,80.35
2023-01-25T03:47:11.248Z,80.24
2023-01-25T03:49:41.911Z,80.85
2023-01-25T03:52:17.731Z,80.85
2023-01-25T03:54:45.215Z,78.58
2023-01-25T03:57:13.808Z,79.56
2023-01-25T03:59:54.871Z,81.29
2023-01-25T04:02:24.761Z,81.18
2023-01-25T04:04:53.362Z,80.50
2023-01-25T04:07:22.293Z,81.44
2023-01-25T04:09:52.642Z,82.42
2023-01-25T04:12:20.289Z,82.98
2023-01-25T04:14:47.887Z,82.32
2023-01-25T04:17:32.059Z,82.48
2023-01-25T04:20:03.054Z,81.88
2023-01-25T04:22:36.621Z,81.85
2023-01-25T04:25:06.084Z,81.77
2023-01-25T04:27:33.635Z,80.13
2023-01-25T04:30:07.477Z,81.02
2023-01-25T04:32:38.294Z,81.32
2023-01-25T04:35:16.594Z,81.40
2023-01-25T04:37:45.112Z,81.92
2023-01-25T04:40:13.211Z,80.17
2023-01-25T04:42:44.574Z,76.21
2023-01-25T04:45:12.316Z,76.18
2023-01-25T04:47:39.825Z,76.72
2023-01-25T04:50:08.531Z,75.62
2023-01-25T04:52:35.860Z,76.85
2023-01-25T04:55:04.021Z,78.83
2023-01-25T04:57:36.417Z,80.54
2023-01-25T05:00:06.599Z,81.19
2023-01-25T05:02:34.290Z,81.25
2023-01-25T05:05:01.977Z,81.77
2023-01-25T05:07:29.726Z,81.70
2023-01-25T05:09:57.166Z,82.38
2023-01-25T05:12:34.575Z,82.20
2023-01-25T05:15:07.451Z,82.73
2023-01-25T05:17:38.197Z,82.31
2023-01-25T05:20:06.482Z,80.17
2023-01-25T05:22:34.143Z,81.17
2023-01-25T05:25:03.160Z,80.82
2023-01-25T05:27:30.741Z,81.45
2023-01-25T05:29:59.602Z,82.06
2023-01-25T05:32:54.375Z,80.93
2023-01-25T05:35:23.292Z,80.78
2023-01-25T05:37:58.824Z,80.66
2023-01-25T05:40:27.411Z,81.69
2023-01-25T05:43:00.192Z,81.34
2023-01-25T05:45:30.452Z,81.69
2023-01-25T05:47:59.566Z,81.54
2023-01-25T05:50:27.959Z,82.22
2023-01-25T05:55:48.929Z,81.92
2023-01-25T05:58:17.387Z,81.66
2023-01-25T06:00:44.776Z,81.87
2023-01-25T06:03:24.020Z,82.17
2023-01-25T06:05:56.638Z,82.30
2023-01-25T06:08:25.172Z,82.73
2023-01-25T06:11:10.877Z,82.36
2023-01-25T06:13:43.533Z,82.39
2023-01-25T06:16:11.828Z,81.75
2023-01-25T06:18:44.424Z,80.75
2023-01-25T06:21:30.868Z,81.76
2023-01-25T06:23:58.593Z,82.21
2023-01-25T06:26:28.585Z,82.14
2023-01-25T06:28:56.069Z,81.09
2023-01-25T06:31:23.879Z,81.68
2023-01-25T06:33:52.935Z,82.15
2023-01-25T06:36:23.629Z,82.92
2023-01-25T06:38:52.989Z,82.63
2023-01-25T06:41:21.278Z,83.04
2023-01-25T06:43:51.729Z,83.53
2023-01-25T06:46:24.704Z,83.52
2023-01-25T06:48:53.444Z,83.29
2023-01-25T06:51:21.998Z,81.72
2023-01-25T06:53:49.775Z,82.25
2023-01-25T06:56:22.993Z,82.44
2023-01-25T06:58:51.348Z,82.73
2023-01-25T07:01:27.472Z,81.53
2023-01-25T07:03:58.297Z,81.32
2023-01-25T07:06:31.278Z,83.82
2023-01-25T07:09:06.731Z,83.30
2023-01-25T07:11:35.065Z,79.76
2023-01-25T07:14:02.644Z,80.71
2023-01-25T07:16:36.829Z,82.74
2023-01-25T07:19:07.207Z,82.88
2023-01-25T07:21:35.111Z,83.91
2023-01-25T07:24:04.436Z,83.82
2023-01-25T07:26:33.036Z,83.28
2023-01-25T07:29:01.170Z,83.12
2023-01-25T07:31:29.216Z,84.06
2023-01-25T07:33:58.754Z,84.13
2023-01-25T07:36:26.795Z,83.77
2023-01-25T07:38:59.594Z,83.73
2023-01-25T07:41:27.567Z,82.51
2023-01-25T07:43:55.186Z,83.14
2023-01-25T07:46:35.818Z,84.02
2023-01-25T07:49:03.307Z,84.07
2023-01-25T07:51:31.411Z,83.02
2023-01-25T07:54:01.656Z,83.98
2023-01-25T07:56:33.710Z,84.20
2023-01-25T07:59:05.359Z,85.08
2023-01-25T08:01:34.763Z,85.41
2023-01-25T08:04:03.673Z,85.63
2023-01-25T08:06:36.220Z,85.58
2023-01-25T08:09:09.912Z,85.12
2023-01-25T08:11:37.448Z,85.37
2023-01-25T08:14:04.880Z,84.21
2023-01-25T08:16:33.080Z,83.94
2023-01-25T08:19:05.026Z,83.43
2023-01-25T08:21:35.575Z,84.08
2023-01-25T08:24:06.073Z,81.65
2023-01-25T08:26:35.417Z,81.99
2023-01-25T08:29:03.271Z,82.63
2023-01-25T08:31:34.252Z,82.18
2023-01-25T08:34:02.596Z,82.57
2023-01-25T08:36:36.057Z,81.77
2023-01-25T08:39:09.390Z,80.13
2023-01-25T08:41:36.963Z,80.48
2023-01-25T08:44:05.103Z,80.68
2023-01-25T08:46:33.953Z,81.91
2023-01-25T08:49:02.928Z,81.91
2023-01-25T08:51:32.163Z,81.13
2023-01-25T08:54:12.448Z,82.11
2023-01-25T08:56:42.021Z,81.04
2023-01-25T08:59:13.605Z,81.27
2023-01-25T09:01:41.241Z,82.18
2023-01-25T09:04:08.466Z,82.31
2023-01-25T09:06:36.144Z,82.15
2023-01-25T09:09:04.988Z,82.82
2023-01-25T09:11:38.432Z,82.89
2023-01-25T09:14:06.729Z,82.43
2023-01-25T09:16:34.672Z,82.68
2023-01-25T09:19:04.129Z,83.25
2023-01-25T09:21:35.442Z,81.87
2023-01-25T09:24:07.595Z,82.26
2023-01-25T09:26:42.949Z,82.55
2023-01-25T09:29:20.461Z,82.50
2023-01-25T09:31:48.529Z,82.91
2023-01-25T09:34:38.001Z,82.15
2023-01-25T09:37:05.372Z,81.85
2023-01-25T09:39:32.841Z,81.98
2023-01-25T09:42:20.568Z,82.89
2023-01-25T09:45:21.864Z,82.38
2023-01-25T09:48:11.431Z,82.78
2023-01-25T09:51:00.175Z,83.41
2023-01-25T09:53:40.437Z,83.99
2023-01-25T09:56:19.351Z,83.69
2023-01-25T09:58:49.676Z,84.02
2023-01-25T10:01:48.982Z,84.00
2023-01-25T10:04:22.672Z,83.17
2023-01-25T10:07:01.122Z,82.78
2023-01-25T10:09:44.402Z,83.73
2023-01-25T10:12:19.753Z,84.17
2023-01-25T10:14:47.459Z,84.59
2023-01-25T10:17:39.879Z,84.96
2023-01-25T14:47:24.237Z,84.42
2023-01-25T14:49:51.323Z,84.34
2023-01-25T14:52:20.244Z,84.35
2023-01-25T14:54:57.829Z,84.17
2023-01-25T14:57:24.731Z,84.58
2023-01-25T14:59:54.670Z,84.49
2023-01-25T15:02:29.441Z,83.64
2023-01-25T15:05:02.848Z,83.79
2023-01-25T15:07:44.664Z,83.81
2023-01-25T15:10:25.228Z,82.15
2023-01-25T15:13:15.718Z,81.66
2023-01-25T15:16:03.493Z,82.86
2023-01-25T15:18:49.060Z,83.11
2023-01-25T15:21:30.596Z,83.35
2023-01-25T15:24:06.690Z,83.87
2023-01-25T15:26:36.128Z,83.95
2023-01-25T15:29:15.995Z,82.95
2023-01-25T15:31:43.396Z,82.27
2023-01-25T15:34:19.843Z,82.57
2023-01-25T15:36:47.435Z,82.27
2023-01-25T15:39:17.070Z,82.75
2023-01-25T15:41:44.777Z,81.73
2023-01-25T15:44:12.917Z,81.94
2023-01-25T15:46:46.223Z,82.45
2023-01-25T15:49:25.656Z,83.58
2023-01-25T15:51:53.497Z,83.18
2023-01-25T15:54:20.593Z,83.08
2023-01-25T15:56:52.510Z,82.53
2023-01-25T15:59:19.717Z,82.40
2023-01-25T16:01:46.783Z,82.99
2023-01-25T16:04:13.940Z,83.05
2023-01-25T16:06:45.757Z,82.33
2023-01-25T16:09:17.423Z,82.53
2023-01-25T16:11:45.722Z,83.40
2023-01-25T16:14:12.859Z,83.77
2023-01-25T17:08:27.724Z,85.16
2023-01-25T17:10:57.600Z,85.82
2023-01-25T17:13:24.498Z,86.15
2023-01-25T17:15:51.537Z,85.99
2023-01-25T17:18:18.494Z,85.49
2023-01-25T17:20:45.651Z,86.02
2023-01-25T17:52:36.644Z,85.02
2023-01-25T17:55:05.212Z,85.38
2023-01-25T17:57:33.726Z,85.82
2023-01-25T18:00:00.768Z,86.22
2023-01-25T18:02:27.731Z,85.79
2023-01-25T18:04:54.961Z,84.35
2023-01-25T18:07:21.970Z,84.36
2023-01-25T18:09:48.966Z,84.08
2023-01-25T18:12:18.450Z,83.28
2023-01-25T18:14:46.610Z,82.96
2023-01-25T18:17:13.541Z,83.48
2023-01-25T18:19:42.939Z,84.72
2023-01-25T18:22:09.970Z,84.49
2023-01-25T18:24:37.091Z,83.96
2023-01-25T18:27:07.449Z,83.38
2023-01-25T18:29:40.771Z,84.29
2023-01-25T18:32:08.015Z,84.17
2023-01-25T18:34:35.336Z,84.31
2023-01-25T18:37:18.142Z,85.05
2023-01-25T18:39:46.395Z,83.79
2023-01-25T18:42:13.465Z,84.01
2023-01-25T18:44:40.534Z,84.31
2023-01-25T18:47:08.265Z,84.11
2023-01-25T18:49:35.146Z,82.93
2023-01-25T18:52:11.460Z,83.35
2023-01-25T18:54:39.412Z,81.98
2023-01-25T18:57:07.256Z,82.36
2023-01-25T18:59:34.392Z,82.04
2023-01-25T19:02:01.524Z,81.51
2023-01-25T19:04:28.949Z,80.89
2023-01-25T19:07:01.611Z,81.68
2023-01-25T19:09:28.958Z,81.97
2023-01-25T19:11:56.478Z,81.82
2023-01-25T19:14:24.189Z,82.39
2023-01-25T19:16:51.679Z,82.28
2023-01-25T19:19:19.203Z,82.17
2023-01-25T19:21:46.242Z,81.42
2023-01-25T19:24:18.000Z,81.72
2023-01-25T19:26:46.481Z,81.48
2023-01-25T19:29:14.596Z,80.57
2023-01-25T19:31:41.892Z,80.80
2023-01-25T19:34:09.140Z,80.75
2023-01-25T19:36:38.098Z,81.79
2023-01-25T19:39:10.110Z,82.04
2023-01-25T19:41:39.039Z,82.15
2023-01-25T19:48:25.577Z,82.47
2023-01-25T19:50:52.610Z,83.07
2023-01-25T19:53:19.625Z,83.21
2023-01-25T19:55:46.583Z,80.72
2023-01-25T19:58:13.537Z,79.37
2023-01-25T20:00:40.645Z,78.78
2023-01-25T20:03:16.344Z,79.81
2023-01-25T20:05:44.681Z,80.03
2023-01-25T20:08:11.628Z,81.06
2023-01-25T20:10:38.769Z,80.81
2023-01-25T20:13:05.749Z,80.84
2023-01-25T20:15:32.715Z,81.41
2023-01-25T20:17:59.733Z,82.07
2023-01-25T20:20:27.694Z,81.91
2023-01-25T20:22:54.648Z,81.82
2023-01-25T20:25:21.620Z,82.23
2023-01-25T20:27:48.608Z,82.69
2023-01-25T20:30:15.754Z,82.60
2023-01-25T20:32:42.767Z,81.83
2023-01-25T20:35:10.043Z,81.70
2023-01-25T20:37:37.254Z,81.26
2023-01-25T20:40:04.587Z,81.87
2023-01-25T20:42:31.540Z,81.67
2023-01-25T20:44:58.603Z,80.93
2023-01-25T20:47:25.598Z,81.97
2023-01-25T20:49:52.485Z,82.19
2023-01-25T20:52:19.424Z,81.43
2023-01-25T20:54:46.496Z,81.48
2023-01-25T20:57:13.550Z,81.79
2023-01-25T20:59:40.491Z,81.99
2023-01-25T21:02:10.786Z,81.94
2023-01-25T21:04:37.811Z,82.27
2023-01-25T21:07:04.811Z,81.67
2023-01-25T21:09:31.766Z,81.51
2023-01-25T21:11:58.744Z,82.24
2023-01-25T21:14:25.711Z,82.38
2023-01-25T21:16:52.870Z,81.46
2023-01-25T21:19:19.779Z,79.78
2023-01-25T21:21:46.668Z,80.38
2023-01-25T21:24:13.638Z,80.62
2023-01-25T21:26:40.705Z,80.55
2023-01-25T21:29:08.185Z,80.56
2023-01-25T21:31:39.861Z,81.06
2023-01-25T21:34:07.279Z,81.53
2023-01-25T21:36:34.238Z,80.31
2023-01-25T21:39:01.539Z,80.31
2023-01-25T21:41:33.557Z,79.87
2023-01-25T21:44:20.397Z,79.40
2023-01-25T21:47:12.395Z,79.92
2023-01-25T21:49:53.745Z,80.10
2023-01-25T21:52:20.723Z,78.93
2023-01-25T21:54:47.732Z,79.70
2023-01-25T21:57:14.671Z,80.65
2023-01-25T21:59:41.617Z,80.09
2023-01-25T22:02:14.189Z,78.82
2023-01-25T22:04:41.307Z,78.45
2023-01-25T22:07:09.095Z,79.02
2023-01-25T22:09:36.361Z,79.68
2023-01-25T22:12:03.724Z,79.22
2023-01-25T22:14:30.775Z,79.23
2023-01-25T22:16:58.849Z,79.88
2023-01-25T22:19:25.977Z,79.77
2023-01-25T22:21:53.037Z,80.38
2023-01-25T22:24:20.154Z,80.85
2023-01-25T22:27:08.106Z,80.95
2023-01-25T22:29:42.384Z,80.98
2023-01-25T22:32:09.421Z,80.95
2023-01-25T22:34:38.134Z,81.53
2023-01-25T22:37:05.092Z,81.42
2023-01-25T22:39:32.044Z,81.33
2023-01-25T22:41:59.138Z,80.97
2023-01-25T22:44:26.235Z,79.77
2023-01-25T22:46:53.940Z,78.93
2023-01-25T22:49:21.169Z,79.25
2023-01-25T22:51:48.206Z,79.89
2023-01-25T22:54:15.173Z,79.64
2023-01-25T22:56:42.153Z,79.70
2023-01-25T22:59:10.289Z,79.84
2023-01-25T23:01:37.852Z,80.79
2023-01-25T23:04:05.017Z,80.21
2023-01-25T23:06:34.480Z,79.82
2023-01-25T23:09:04.715Z,80.02
2023-01-25T23:11:37.439Z,80.07
2023-01-25T23:14:26.732Z,80.55
2023-01-25T23:17:14.386Z,79.47
2023-01-25T23:19:41.471Z,79.87
2023-01-25T23:22:08.467Z,80.46
2023-01-25T23:24:35.472Z,80.59
2023-01-25T23:27:02.615Z,81.44
2023-01-25T23:29:29.650Z,81.04
2023-01-25T23:31:56.723Z,80.86
2023-01-25T23:34:23.792Z,80.43
2023-01-25T23:36:50.780Z,81.12
2023-01-25T23:39:17.955Z,80.63
2023-01-25T23:41:44.948Z,79.46
2023-01-25T23:44:11.981Z,78.74
2023-01-25T23:46:39.219Z,79.00
2023-01-25T23:49:06.332Z,79.45
2023-01-25T23:51:33.295Z,80.37
2023-01-25T23:54:00.255Z,79.83
2023-01-25T23:56:27.375Z,79.32
2023-01-25T23:58:54.421Z,79.54
